createdAt,value
2023-07-08T00:00:51.991Z,100866.80
2023-07-08T00:03:45.279Z,100867.40
2023-07-08T00:06:23.232Z,100863.20
2023-07-08T00:08:56.901Z,100861.00
2023-07-08T00:11:31.382Z,100862.00
2023-07-08T00:14:04.606Z,100858.40
2023-07-08T00:16:38.195Z,100865.20
2023-07-08T00:19:18.759Z,100859.40
2023-07-08T00:21:50.180Z,100855.80
2023-07-08T00:24:23.343Z,100858.60
2023-07-08T00:26:56.468Z,100857.60
2023-07-08T00:29:29.792Z,100859.40
2023-07-08T00:32:03.085Z,100858.00
2023-07-08T00:34:36.524Z,100860.80
2023-07-08T00:37:11.555Z,100859.60
2023-07-08T00:39:44.738Z,100861.00
2023-07-08T00:42:24.189Z,100854.80
2023-07-08T00:44:57.897Z,100855.80
2023-07-08T00:47:31.044Z,100854.00
2023-07-08T00:50:12.672Z,100844.40
2023-07-08T00:52:48.939Z,100847.40
2023-07-08T00:55:22.162Z,100848.20
2023-07-08T00:57:55.453Z,100851.60
2023-07-08T01:00:29.281Z,100848.40
2023-07-08T01:03:02.507Z,100847.60
2023-07-08T01:05:40.027Z,100848.80
2023-07-08T01:08:13.205Z,100844.60
2023-07-08T01:10:53.816Z,100848.60
2023-07-08T01:13:27.277Z,100844.60
2023-07-08T01:16:02.436Z,100836.40
2023-07-08T01:18:37.213Z,100842.60
2023-07-08T01:21:35.699Z,100839.60
2023-07-08T01:24:12.653Z,100837.60
2023-07-08T01:26:48.324Z,100833.60
2023-07-08T01:29:22.025Z,100831.60
2023-07-08T01:31:57.189Z,100835.80
2023-07-08T01:34:30.428Z,100831.60
2023-07-08T01:37:06.017Z,100829.80
2023-07-08T01:39:39.107Z,100821.40
2023-07-08T01:42:12.341Z,100822.40
2023-07-08T01:44:45.404Z,100824.00
2023-07-08T01:47:22.817Z,100827.60
2023-07-08T01:49:56.018Z,100829.20
2023-07-08T01:52:29.256Z,100821.20
2023-07-08T01:55:02.500Z,100823.20
2023-07-08T01:57:35.686Z,100825.80
2023-07-08T02:00:11.277Z,100826.80
2023-07-08T02:02:47.560Z,100824.20
2023-07-08T02:05:21.231Z,100824.80
2023-07-08T02:07:54.363Z,100827.20
2023-07-08T02:10:27.873Z,100823.00
2023-07-08T02:13:01.087Z,100828.80
2023-07-08T02:15:34.658Z,100817.20
2023-07-08T02:18:07.977Z,100822.80
2023-07-08T02:20:41.130Z,100820.20
2023-07-08T02:23:14.496Z,100823.00
2023-07-08T02:25:54.535Z,100820.20
2023-07-08T02:28:27.976Z,100815.80
2023-07-08T02:31:06.047Z,100824.80
2023-07-08T02:33:39.400Z,100821.20
2023-07-08T02:36:12.491Z,100825.80
2023-07-08T02:38:45.610Z,100823.40
2023-07-08T02:41:19.532Z,100820.00
2023-07-08T02:43:52.943Z,100823.40
2023-07-08T02:46:26.417Z,100823.40
2023-07-08T02:48:59.717Z,100822.00
2023-07-08T02:51:33.038Z,100826.00
2023-07-08T02:54:06.247Z,100823.80
2023-07-08T02:56:39.475Z,100819.60
2023-07-08T02:59:12.685Z,100820.40
2023-07-08T03:01:48.285Z,100813.40
2023-07-08T03:04:23.252Z,100816.00
2023-07-08T03:06:56.917Z,100816.00
2023-07-08T03:09:30.251Z,100814.20
2023-07-08T03:12:03.437Z,100816.40
2023-07-08T03:14:38.252Z,100816.20
2023-07-08T03:17:11.964Z,100816.00
2023-07-08T03:19:46.300Z,100820.40
2023-07-08T03:22:19.400Z,100820.80
2023-07-08T03:24:52.633Z,100822.00
2023-07-08T03:27:27.744Z,100820.60
2023-07-08T03:30:01.756Z,100821.00
2023-07-08T03:32:36.363Z,100825.00
2023-07-08T03:35:12.431Z,100823.80
2023-07-08T03:37:45.747Z,100823.80
2023-07-08T03:40:19.173Z,100826.00
2023-07-08T03:42:52.338Z,100821.20
2023-07-08T03:45:25.674Z,100823.80
2023-07-08T03:47:59.159Z,100823.20
2023-07-08T03:50:32.784Z,100828.80
2023-07-08T03:53:06.041Z,100824.20
2023-07-08T03:55:39.383Z,100823.40
2023-07-08T03:58:12.929Z,100820.60
2023-07-08T04:00:46.284Z,100821.20
2023-07-08T04:03:20.611Z,100817.60
2023-07-08T04:05:54.024Z,100823.20
2023-07-08T04:08:27.600Z,100820.00
2023-07-08T04:11:01.044Z,100816.80
2023-07-08T04:13:34.729Z,100824.80
2023-07-08T04:16:12.604Z,100828.00
2023-07-08T04:18:45.765Z,100823.20
2023-07-08T04:21:23.367Z,100825.80
2023-07-08T04:23:56.891Z,100825.60
2023-07-08T04:26:30.292Z,100822.40
2023-07-08T04:29:03.589Z,100822.40
2023-07-08T04:31:37.178Z,100817.80
2023-07-08T04:34:10.987Z,100820.00
2023-07-08T04:36:44.332Z,100810.80
2023-07-08T04:39:17.668Z,100815.80
2023-07-08T04:41:52.218Z,100808.80
2023-07-08T04:44:25.615Z,100819.00
2023-07-08T04:47:00.963Z,100815.80
2023-07-08T04:49:35.151Z,100813.60
2023-07-08T04:52:09.578Z,100813.20
2023-07-08T04:54:42.874Z,100810.00
2023-07-08T04:57:17.921Z,100805.20
2023-07-08T04:59:51.525Z,100808.80
2023-07-08T05:02:24.724Z,100807.00
2023-07-08T05:04:57.855Z,100802.40
2023-07-08T05:07:31.097Z,100804.20
2023-07-08T05:10:05.107Z,100803.60
2023-07-08T05:12:38.324Z,100807.00
2023-07-08T05:15:13.354Z,100805.40
2023-07-08T05:17:47.038Z,100802.20
2023-07-08T05:20:20.655Z,100806.40
2023-07-08T05:22:54.057Z,100807.20
2023-07-08T05:25:28.890Z,100808.60
2023-07-08T05:28:02.410Z,100812.80
2023-07-08T05:30:35.870Z,100814.80
2023-07-08T05:33:09.418Z,100803.40
2023-07-08T05:35:42.580Z,100805.60
2023-07-08T05:38:15.720Z,100804.00
2023-07-08T05:40:52.585Z,100805.80
2023-07-08T05:43:25.932Z,100804.00
2023-07-08T05:46:11.281Z,100804.80
2023-07-08T05:48:46.137Z,100804.60
2023-07-08T05:51:19.425Z,100807.00
2023-07-08T05:53:52.640Z,100810.20
2023-07-08T05:56:25.820Z,100814.00
2023-07-08T05:58:59.103Z,100808.80
2023-07-08T06:01:32.466Z,100807.40
2023-07-08T06:04:06.062Z,100814.80
2023-07-08T06:06:39.347Z,100811.00
2023-07-08T06:09:12.488Z,100813.60
2023-07-08T06:11:45.805Z,100816.40
2023-07-08T06:14:19.063Z,100812.80
2023-07-08T06:16:52.546Z,100811.40
2023-07-08T06:19:26.087Z,100808.20
2023-07-08T06:22:13.565Z,100807.00
2023-07-08T06:24:52.839Z,100809.00
2023-07-08T06:27:26.350Z,100805.00
2023-07-08T06:30:00.701Z,100805.00
2023-07-08T06:32:33.786Z,100801.80
2023-07-08T06:35:07.888Z,100802.00
2023-07-08T06:37:41.083Z,100805.80
2023-07-08T06:40:16.232Z,100804.00
2023-07-08T06:42:49.646Z,100807.80
2023-07-08T06:45:33.930Z,100803.20
2023-07-08T06:48:07.670Z,100806.80
2023-07-08T06:50:44.108Z,100810.40
2023-07-08T06:53:17.494Z,100805.00
2023-07-08T06:55:51.902Z,100803.40
2023-07-08T06:58:25.042Z,100803.40
2023-07-08T07:00:58.729Z,100805.00
2023-07-08T07:03:32.178Z,100804.60
2023-07-08T07:06:05.546Z,100814.20
2023-07-08T07:08:38.737Z,100811.60
2023-07-08T07:11:12.009Z,100813.20
2023-07-08T07:13:45.379Z,100809.60
2023-07-08T07:16:18.597Z,100812.20
2023-07-08T07:18:53.213Z,100813.00
2023-07-08T07:21:26.563Z,100815.00
2023-07-08T07:23:59.732Z,100816.40
2023-07-08T07:26:33.812Z,100817.60
2023-07-08T07:29:06.942Z,100820.00
2023-07-08T07:31:41.256Z,100819.80
2023-07-08T07:34:15.629Z,100821.80
2023-07-08T07:36:48.977Z,100824.20
2023-07-08T07:39:22.071Z,100829.00
2023-07-08T07:41:55.227Z,100825.20
2023-07-08T07:44:28.486Z,100821.20
2023-07-08T07:47:01.820Z,100822.20
2023-07-08T07:49:35.103Z,100818.60
2023-07-08T07:52:12.128Z,100827.20
2023-07-08T07:54:45.864Z,100823.00
2023-07-08T07:57:19.204Z,100825.40
2023-07-08T07:59:52.967Z,100818.80
2023-07-08T08:02:26.423Z,100822.00
2023-07-08T08:04:59.681Z,100819.80
2023-07-08T08:07:32.869Z,100817.40
2023-07-08T08:10:06.575Z,100813.00
2023-07-08T08:12:52.565Z,100811.20
2023-07-08T08:15:27.691Z,100815.40
2023-07-08T08:18:00.984Z,100823.20
2023-07-08T08:20:34.788Z,100822.40
2023-07-08T08:23:09.041Z,100819.00
2023-07-08T08:25:42.317Z,100820.40
2023-07-08T08:28:15.577Z,100812.60
2023-07-08T08:30:52.496Z,100811.00
2023-07-08T08:33:25.954Z,100816.80
2023-07-08T08:35:59.455Z,100815.60
2023-07-08T08:38:32.933Z,100813.20
2023-07-08T08:41:16.774Z,100816.80
2023-07-08T08:43:52.791Z,100812.20
2023-07-08T08:46:34.643Z,100809.80
2023-07-08T08:49:23.889Z,100816.20
2023-07-08T08:52:02.872Z,100813.60
2023-07-08T08:54:36.249Z,100816.40
2023-07-08T08:57:29.765Z,100816.20
2023-07-08T09:00:04.590Z,100816.40
2023-07-08T09:02:44.008Z,100807.20
2023-07-08T09:05:18.028Z,100803.80
2023-07-08T09:08:15.420Z,100806.40
2023-07-08T09:10:57.735Z,100802.20
2023-07-08T09:13:34.317Z,100803.40
2023-07-08T09:16:18.972Z,100807.00
2023-07-08T09:19:06.914Z,100805.60
2023-07-08T09:21:52.097Z,100809.80
2023-07-08T09:24:33.717Z,100806.00
2023-07-08T09:27:07.653Z,100803.00
2023-07-08T09:29:41.819Z,100806.20
2023-07-08T09:32:23.666Z,100800.00
2023-07-08T09:35:04.328Z,100805.60
2023-07-08T09:37:40.556Z,100800.80
2023-07-08T09:40:22.727Z,100801.20
2023-07-08T09:43:01.499Z,100795.60
2023-07-08T09:45:45.183Z,100790.60
2023-07-08T09:48:27.260Z,100789.20
2023-07-08T09:51:02.443Z,100787.80
2023-07-08T09:53:37.519Z,100787.00
2023-07-08T09:56:12.773Z,100783.00
2023-07-08T09:58:50.549Z,100782.20
2023-07-08T10:01:30.365Z,100777.40
2023-07-08T10:04:06.113Z,100778.00
2023-07-08T10:06:40.009Z,100777.80
2023-07-08T10:09:20.159Z,100776.80
2023-07-08T10:11:58.783Z,100778.20
2023-07-08T10:14:37.573Z,100782.00
2023-07-08T10:17:16.032Z,100784.40
2023-07-08T10:19:49.324Z,100784.40
2023-07-08T10:22:43.733Z,100783.60
2023-07-08T10:25:31.502Z,100785.40
2023-07-08T10:28:22.754Z,100783.20
2023-07-08T10:31:13.332Z,100788.40
2023-07-08T10:34:06.242Z,100787.20
2023-07-08T10:36:52.639Z,100788.00
2023-07-08T10:40:04.105Z,100785.80
2023-07-08T10:43:02.691Z,100781.60
2023-07-08T10:45:41.801Z,100779.00
2023-07-08T10:48:43.344Z,100777.00
2023-07-08T10:51:28.983Z,100781.40
2023-07-08T10:54:35.837Z,100784.20
2023-07-08T10:57:23.021Z,100784.20
2023-07-08T11:00:06.027Z,100779.80
2023-07-08T11:03:21.538Z,100781.00
2023-07-08T11:06:02.782Z,100773.80
2023-07-08T11:08:42.130Z,100765.40
2023-07-08T11:11:26.844Z,100761.60
2023-07-08T11:14:06.341Z,100761.60
2023-07-08T11:16:43.886Z,100760.20
2023-07-08T11:19:24.160Z,100765.80
2023-07-08T11:22:01.890Z,100762.20
2023-07-08T11:24:42.091Z,100757.00
2023-07-08T11:27:25.561Z,100763.60
2023-07-08T11:30:02.303Z,100764.00
2023-07-08T11:32:38.233Z,100759.20
2023-07-08T11:35:22.421Z,100759.00
2023-07-08T11:37:56.350Z,100757.40
2023-07-08T11:40:29.712Z,100757.00
2023-07-08T11:43:08.782Z,100757.00
2023-07-08T11:45:45.790Z,100758.60
2023-07-08T11:48:23.890Z,100753.60
2023-07-08T11:50:59.431Z,100753.40
2023-07-08T11:53:49.683Z,100759.80
2023-07-08T11:56:28.812Z,100758.00
2023-07-08T11:59:21.168Z,100750.60
2023-07-08T12:02:04.522Z,100752.80
2023-07-08T12:04:54.917Z,100753.40
2023-07-08T12:07:39.321Z,100750.60
2023-07-08T12:10:20.803Z,100753.20
2023-07-08T12:12:53.973Z,100745.40
2023-07-08T12:15:30.811Z,100748.20
2023-07-08T12:18:09.298Z,100741.80
2023-07-08T12:20:45.891Z,100739.40
2023-07-08T12:23:23.377Z,100741.20
2023-07-08T12:25:58.905Z,100736.00
2023-07-08T12:28:32.193Z,100732.60
2023-07-08T12:31:10.876Z,100732.80
2023-07-08T12:33:44.321Z,100731.40
2023-07-08T12:36:23.623Z,100734.00
2023-07-08T12:38:57.805Z,100732.00
2023-07-08T12:41:34.474Z,100734.80
2023-07-08T12:44:19.861Z,100734.40
2023-07-08T12:46:55.442Z,100728.60
2023-07-08T12:49:30.708Z,100724.00
2023-07-08T12:52:04.130Z,100720.80
2023-07-08T12:54:37.441Z,100730.40
2023-07-08T12:57:12.844Z,100723.40
2023-07-08T12:59:46.355Z,100723.20
2023-07-08T13:02:24.483Z,100721.60
2023-07-08T13:05:02.227Z,100720.00
2023-07-08T13:07:41.640Z,100714.00
2023-07-08T13:10:25.371Z,100716.40
2023-07-08T13:13:03.153Z,100711.20
2023-07-08T13:15:41.744Z,100711.20
2023-07-08T13:18:20.571Z,100711.80
2023-07-08T13:20:57.418Z,100708.60
2023-07-08T13:23:31.403Z,100706.40
2023-07-08T13:26:14.273Z,100706.20
2023-07-08T13:28:48.091Z,100704.20
2023-07-08T13:31:25.826Z,100700.80
2023-07-08T13:33:59.888Z,100701.40
2023-07-08T13:36:39.902Z,100697.40
2023-07-08T13:39:22.082Z,100693.80
2023-07-08T13:41:55.839Z,100690.80
2023-07-08T13:44:29.402Z,100684.60
2023-07-08T13:47:07.156Z,100682.00
2023-07-08T13:49:46.577Z,100687.00
2023-07-08T13:52:25.221Z,100683.00
2023-07-08T13:55:04.080Z,100680.00
2023-07-08T13:57:41.947Z,100675.20
2023-07-08T14:00:17.504Z,100683.40
2023-07-08T14:02:50.889Z,100677.20
2023-07-08T14:05:24.348Z,100675.60
2023-07-08T14:07:57.668Z,100678.20
2023-07-08T14:10:30.998Z,100673.60
2023-07-08T14:13:04.558Z,100674.40
2023-07-08T14:15:38.072Z,100669.80
2023-07-08T14:18:14.128Z,100668.20
2023-07-08T14:20:47.408Z,100671.60
2023-07-08T14:23:21.945Z,100669.40
2023-07-08T14:25:55.328Z,100668.80
2023-07-08T14:28:28.575Z,100671.60
2023-07-08T14:31:02.814Z,100668.40
2023-07-08T14:33:36.703Z,100666.40
2023-07-08T14:36:13.299Z,100668.80
2023-07-08T14:38:46.642Z,100670.40
2023-07-08T14:41:20.196Z,100669.80
2023-07-08T14:43:54.100Z,100665.00
2023-07-08T14:46:27.678Z,100660.20
2023-07-08T14:49:01.104Z,100666.80
2023-07-08T14:51:34.387Z,100665.20
2023-07-08T14:54:07.885Z,100667.80
2023-07-08T14:56:42.008Z,100665.20
2023-07-08T14:59:20.376Z,100660.60
2023-07-08T15:01:55.935Z,100663.00
2023-07-08T15:04:29.556Z,100662.00
2023-07-08T15:07:03.938Z,100664.00
2023-07-08T15:09:37.223Z,100664.60
2023-07-08T15:12:15.228Z,100658.60
2023-07-08T15:14:46.888Z,100662.40
2023-07-08T15:17:21.026Z,100664.60
2023-07-08T15:19:55.279Z,100660.80
2023-07-08T15:22:30.369Z,100662.60
2023-07-08T15:25:03.887Z,100661.80
2023-07-08T15:27:37.505Z,100660.20
2023-07-08T15:30:20.765Z,100661.60
2023-07-08T15:32:54.662Z,100654.80
2023-07-08T15:35:33.829Z,100653.20
2023-07-08T15:38:07.343Z,100652.80
2023-07-08T15:40:42.723Z,100650.00
2023-07-08T15:43:19.074Z,100649.00
2023-07-08T15:45:52.303Z,100651.60
2023-07-08T15:48:25.738Z,100651.20
2023-07-08T15:50:59.517Z,100651.00
2023-07-08T15:53:34.003Z,100650.60
2023-07-08T15:56:07.693Z,100639.40
2023-07-08T15:58:41.807Z,100638.00
2023-07-08T16:01:21.745Z,100637.20
2023-07-08T16:03:55.392Z,100636.40
2023-07-08T16:06:30.118Z,100639.80
2023-07-08T16:09:04.926Z,100638.40
2023-07-08T16:11:38.338Z,100639.00
2023-07-08T16:14:14.034Z,100636.40
2023-07-08T16:16:48.558Z,100639.00
2023-07-08T16:19:21.867Z,100639.00
2023-07-08T16:21:55.179Z,100631.20
2023-07-08T16:24:28.716Z,100635.40
2023-07-08T16:27:02.069Z,100628.80
2023-07-08T16:29:36.724Z,100627.40
2023-07-08T16:32:15.436Z,100631.20
2023-07-08T16:34:48.939Z,100632.00
2023-07-08T16:37:22.432Z,100625.00
2023-07-08T16:39:57.102Z,100627.40
2023-07-08T16:42:30.531Z,100622.80
2023-07-08T16:45:04.924Z,100626.20
2023-07-08T16:47:38.526Z,100625.60
2023-07-08T16:50:13.569Z,100624.60
2023-07-08T16:52:47.191Z,100626.80
2023-07-08T16:55:24.548Z,100627.40
2023-07-08T16:57:58.084Z,100625.40
2023-07-08T17:00:31.943Z,100622.60
2023-07-08T17:03:06.394Z,100622.60
2023-07-08T17:05:41.298Z,100618.20
2023-07-08T17:08:16.887Z,100622.20
2023-07-08T17:10:50.186Z,100618.00
2023-07-08T17:13:23.564Z,100613.20
2023-07-08T17:15:57.238Z,100611.20
2023-07-08T17:18:30.781Z,100611.40
2023-07-08T17:21:05.597Z,100620.60
2023-07-08T17:23:39.198Z,100615.00
2023-07-08T17:26:13.042Z,100615.20
2023-07-08T17:28:49.859Z,100616.00
2023-07-08T17:31:34.527Z,100617.80
2023-07-08T17:34:24.492Z,100616.40
2023-07-08T17:36:58.270Z,100617.60
2023-07-08T17:39:31.666Z,100615.20
2023-07-08T17:42:05.356Z,100612.20
2023-07-08T17:44:38.822Z,100613.80
2023-07-08T17:47:16.971Z,100608.60
2023-07-08T17:49:50.456Z,100608.80
2023-07-08T17:52:24.020Z,100608.00
2023-07-08T17:54:57.469Z,100606.60
2023-07-08T17:57:30.794Z,100611.00
2023-07-08T18:00:04.453Z,100608.80
2023-07-08T18:02:46.747Z,100604.60
2023-07-08T18:05:23.482Z,100609.80
2023-07-08T18:07:57.741Z,100603.60
2023-07-08T18:10:34.029Z,100600.20
2023-07-08T18:13:23.490Z,100600.40
2023-07-08T18:15:57.615Z,100595.80
2023-07-08T18:18:31.097Z,100598.40
2023-07-08T18:21:04.617Z,100603.20
2023-07-08T18:23:38.219Z,100602.40
2023-07-08T18:26:18.973Z,100601.60
2023-07-08T18:28:52.917Z,100601.40
2023-07-08T18:31:34.773Z,100597.20
2023-07-08T18:34:09.735Z,100595.40
2023-07-08T18:36:43.144Z,100599.80
2023-07-08T18:39:19.399Z,100596.00
2023-07-08T18:41:52.970Z,100595.40
2023-07-08T18:44:33.324Z,100599.40
2023-07-08T18:47:07.463Z,100598.20
2023-07-08T18:49:40.943Z,100598.80
2023-07-08T18:52:17.371Z,100597.80
2023-07-08T18:54:51.067Z,100598.80
2023-07-08T18:57:25.082Z,100600.00
2023-07-08T18:59:58.864Z,100601.00
2023-07-08T19:02:39.218Z,100605.00
2023-07-08T19:05:15.571Z,100606.80
2023-07-08T19:07:49.695Z,100611.00
2023-07-08T19:10:30.215Z,100611.60
2023-07-08T19:13:03.875Z,100619.60
2023-07-08T19:15:37.481Z,100617.40
2023-07-08T19:18:12.574Z,100624.80
2023-07-08T19:20:49.343Z,100621.00
2023-07-08T19:23:27.279Z,100626.60
2023-07-08T19:26:00.862Z,100628.40
2023-07-08T19:28:35.007Z,100624.20
2023-07-08T19:31:18.614Z,100627.60
2023-07-08T19:33:53.834Z,100630.40
2023-07-08T19:36:27.764Z,100626.80
2023-07-08T19:39:01.626Z,100627.80
2023-07-08T19:41:39.411Z,100628.40
2023-07-08T19:44:19.731Z,100626.80
2023-07-08T19:46:53.358Z,100624.00
2023-07-08T19:49:26.829Z,100623.40
2023-07-08T19:52:00.966Z,100627.60
2023-07-08T19:54:34.391Z,100628.00
2023-07-08T19:57:14.873Z,100626.20
2023-07-08T19:59:48.800Z,100631.60
2023-07-08T20:02:23.670Z,100635.80
2023-07-08T20:04:57.316Z,100637.20
2023-07-08T20:07:31.165Z,100631.20
2023-07-08T20:10:04.919Z,100636.20
2023-07-08T20:12:38.503Z,100639.80
2023-07-08T20:15:14.561Z,100642.00
2023-07-08T20:17:48.138Z,100643.80
2023-07-08T20:20:28.172Z,100643.80
2023-07-08T20:23:02.499Z,100649.40
2023-07-08T20:25:35.934Z,100650.80
2023-07-08T20:28:12.394Z,100649.60
2023-07-08T20:30:45.979Z,100648.60
2023-07-08T20:33:19.708Z,100652.00
2023-07-08T20:35:53.222Z,100653.00
2023-07-08T20:38:26.786Z,100651.80
2023-07-08T20:41:00.367Z,100653.20
2023-07-08T20:43:33.941Z,100650.00
2023-07-08T20:46:13.576Z,100648.40
2023-07-08T20:48:47.149Z,100651.20
2023-07-08T20:51:20.737Z,100654.40
2023-07-08T20:53:54.743Z,100654.60
2023-07-08T20:56:32.611Z,100658.80
2023-07-08T20:59:06.081Z,100655.00
2023-07-08T21:01:39.483Z,100656.00
2023-07-08T21:04:16.275Z,100655.40
2023-07-08T21:06:49.663Z,100654.20
2023-07-08T21:09:24.902Z,100655.20
2023-07-08T21:11:58.215Z,100657.60
2023-07-08T21:14:31.544Z,100661.40
2023-07-08T21:17:05.958Z,100657.00
2023-07-08T21:19:40.789Z,100655.00
2023-07-08T21:22:16.056Z,100658.00
2023-07-08T21:24:49.528Z,100661.60
2023-07-08T21:27:32.219Z,100661.80
2023-07-08T21:30:06.171Z,100660.00
2023-07-08T21:32:39.626Z,100658.80
2023-07-08T21:35:14.127Z,100661.40
2023-07-08T21:37:53.322Z,100662.60
2023-07-08T21:40:37.522Z,100664.40
2023-07-08T21:43:16.326Z,100665.00
2023-07-08T21:45:50.056Z,100659.00
2023-07-08T21:48:24.282Z,100661.20
2023-07-08T21:51:00.405Z,100659.80
2023-07-08T21:53:37.358Z,100662.60
2023-07-08T21:56:12.289Z,100669.20
2023-07-08T21:58:45.800Z,100664.60
2023-07-08T22:01:23.828Z,100665.40
2023-07-08T22:03:59.221Z,100665.00
2023-07-08T22:06:32.733Z,100666.60
2023-07-08T22:09:06.537Z,100662.40
2023-07-08T22:11:41.718Z,100670.20
2023-07-08T22:14:16.210Z,100671.60
2023-07-08T22:17:01.371Z,100672.80
2023-07-08T22:19:39.076Z,100674.60
2023-07-08T22:22:15.270Z,100674.40
2023-07-08T22:24:48.831Z,100675.80
2023-07-08T22:27:22.316Z,100681.00
2023-07-08T22:29:55.686Z,100676.00
2023-07-08T22:32:29.274Z,100677.80
2023-07-08T22:35:02.771Z,100674.00
2023-07-08T22:37:36.098Z,100668.60
2023-07-08T22:40:11.718Z,100671.40
2023-07-08T22:42:46.727Z,100670.60
2023-07-08T22:45:20.855Z,100672.40
2023-07-08T22:47:54.941Z,100675.80
2023-07-08T22:50:38.105Z,100672.60
2023-07-08T22:53:13.835Z,100673.80
2023-07-08T22:55:48.348Z,100674.00
2023-07-08T22:58:26.202Z,100671.00
2023-07-08T23:01:00.067Z,100670.60
2023-07-08T23:03:33.593Z,100670.20
2023-07-08T23:06:07.601Z,100666.60
2023-07-08T23:08:42.135Z,100665.60
2023-07-08T23:11:16.996Z,100672.40
2023-07-08T23:13:51.331Z,100671.00
2023-07-08T23:16:33.327Z,100667.60
2023-07-08T23:19:08.120Z,100663.40
2023-07-08T23:21:42.132Z,100664.00
2023-07-08T23:24:15.633Z,100663.60
2023-07-08T23:26:49.191Z,100658.60
2023-07-08T23:29:25.233Z,100657.00
2023-07-08T23:31:59.917Z,100658.40
2023-07-08T23:34:33.559Z,100664.40
2023-07-08T23:37:07.742Z,100658.80
2023-07-08T23:39:41.155Z,100661.80
2023-07-08T23:42:18.224Z,100665.20
2023-07-08T23:44:51.337Z,100663.80
2023-07-08T23:47:27.816Z,100663.00
2023-07-08T23:50:01.816Z,100661.20
2023-07-08T23:52:35.003Z,100667.20
2023-07-08T23:55:09.841Z,100669.80
2023-07-08T23:57:43.737Z,100670.00
